Time;durP1;ratioP1;P1;durP2;ratioP2;P2;SDS_P1;SDS_P2;PMS_P1;PMS_P2;Temp;Humidity;BMP_temperature;BMP_pressure;BME280_temperature;BME280_humidity;BME280_pressure;Samples;Min_cycle;Max_cycle;Signal;HPM_P1;HPM_P2
2022/08/21 00:01:59;;;;;;;5.03;2.90;;;19.40;73.20;;;;;;4977875;28;20049;-74
2022/08/21 00:04:26;;;;;;;5.35;2.90;;;19.40;73.30;;;;;;4970690;28;20049;-74
2022/08/21 00:06:51;;;;;;;7.28;3.00;;;19.30;73.30;;;;;;4987699;28;20038;-74
2022/08/21 00:09:18;;;;;;;8.63;3.17;;;19.30;73.40;;;;;;4987025;28;20078;-74
2022/08/21 00:11:44;;;;;;;8.23;3.22;;;19.30;73.50;;;;;;4983317;28;20015;-74
2022/08/21 00:14:11;;;;;;;7.22;2.78;;;19.30;73.50;;;;;;4972887;28;20085;-74
2022/08/21 00:16:38;;;;;;;8.38;3.33;;;19.30;73.60;;;;;;4984644;28;20026;-74
2022/08/21 00:19:06;;;;;;;8.13;3.53;;;19.20;73.60;;;;;;4973239;28;20473;-74
2022/08/21 00:21:32;;;;;;;9.20;3.92;;;19.20;73.70;;;;;;4977394;28;20022;-74
2022/08/21 00:23:58;;;;;;;5.90;3.17;;;19.20;73.80;;;;;;4992313;28;20049;-75
2022/08/21 00:26:23;;;;;;;7.28;3.78;;;19.20;73.90;;;;;;4977534;28;20031;-74
2022/08/21 00:28:49;;;;;;;7.55;3.13;;;19.10;73.80;;;;;;4990014;28;20572;-74
2022/08/21 00:31:16;;;;;;;9.98;4.07;;;19.10;73.90;;;;;;4986989;28;20018;-74
2022/08/21 00:33:42;;;;;;;6.90;3.65;;;19.20;74.00;;;;;;4977335;28;20383;-74
2022/08/21 00:36:08;;;;;;;11.07;4.18;;;19.10;74.00;;;;;;4978968;28;20026;-75
2022/08/21 00:38:34;;;;;;;9.93;3.85;;;19.10;74.00;;;;;;4985164;28;20054;-75
2022/08/21 00:41:02;;;;;;;8.30;3.50;;;19.10;74.00;;;;;;4989187;28;20022;-74
2022/08/21 00:43:32;;;;;;;6.55;3.65;;;19.00;74.00;;;;;;4983726;28;20038;-75
2022/08/21 00:45:59;;;;;;;6.97;3.60;;;19.00;74.10;;;;;;4988273;28;20027;-74
2022/08/21 00:48:26;;;;;;;6.35;3.30;;;19.00;74.10;;;;;;4991413;28;20121;-74
2022/08/21 00:51:04;;;;;;;9.32;3.25;;;19.00;74.20;;;;;;4991008;28;20045;-75
2022/08/21 00:53:30;;;;;;;7.43;3.80;;;19.00;74.20;;;;;;4980662;28;20493;-75
2022/08/21 00:55:57;;;;;;;7.93;3.92;;;18.90;74.20;;;;;;4990115;28;20089;-75
2022/08/21 00:58:24;;;;;;;8.15;3.45;;;18.90;74.30;;;;;;4980795;28;20077;-74
2022/08/21 01:00:50;;;;;;;7.25;3.88;;;18.90;74.30;;;;;;4991799;28;20026;-75
2022/08/21 01:03:20;;;;;;;8.77;3.70;;;18.90;74.30;;;;;;4986946;28;20397;-75
2022/08/21 01:05:46;;;;;;;8.25;3.63;;;18.90;74.40;;;;;;4996151;28;20113;-75
2022/08/21 01:08:13;;;;;;;7.50;3.60;;;18.90;74.30;;;;;;4994249;28;20065;-75
2022/08/21 01:10:41;;;;;;;9.30;3.95;;;18.80;74.30;;;;;;4985195;28;20019;-75
2022/08/21 01:13:09;;;;;;;11.38;4.30;;;18.80;74.30;;;;;;4987843;28;20053;-75
2022/08/21 01:15:39;;;;;;;9.40;3.70;;;18.80;74.30;;;;;;5002547;28;20026;-75
2022/08/21 01:18:09;;;;;;;9.73;4.60;;;18.80;74.40;;;;;;4998125;28;20551;-75
2022/08/21 01:20:36;;;;;;;9.23;3.92;;;18.80;74.50;;;;;;4997289;28;20032;-74
2022/08/21 01:23:03;;;;;;;8.65;3.80;;;18.80;74.50;;;;;;4996674;28;20065;-75
2022/08/21 01:25:30;;;;;;;9.15;4.50;;;18.80;74.50;;;;;;5000968;28;20038;-74
2022/08/21 01:27:59;;;;;;;8.95;4.28;;;18.80;74.60;;;;;;4979029;28;20140;-75
2022/08/21 01:30:26;;;;;;;8.63;4.07;;;18.70;74.60;;;;;;5002587;28;20041;-75
2022/08/21 01:32:53;;;;;;;8.27;4.18;;;18.70;75.00;;;;;;4999936;28;20026;-75
2022/08/21 01:35:20;;;;;;;11.38;4.10;;;18.70;74.70;;;;;;4994643;28;20027;-74
2022/08/21 01:37:47;;;;;;;10.75;4.20;;;18.70;74.70;;;;;;4992261;28;20022;-74
2022/08/21 01:40:16;;;;;;;7.70;4.10;;;18.70;74.80;;;;;;4982454;28;20030;-74
2022/08/21 01:42:43;;;;;;;9.45;4.07;;;18.70;75.00;;;;;;4991550;28;20026;-74
2022/08/21 01:45:10;;;;;;;7.00;4.18;;;18.60;75.00;;;;;;4981071;28;20022;-74
2022/08/21 01:47:36;;;;;;;8.18;4.30;;;18.60;75.00;;;;;;4991017;28;20090;-74
2022/08/21 01:50:08;;;;;;;7.82;4.50;;;18.60;75.20;;;;;;4987500;28;20030;-74
2022/08/21 01:52:34;;;;;;;7.90;4.40;;;18.50;75.80;;;;;;4973839;28;20027;-75
2022/08/21 01:54:59;;;;;;;8.32;4.43;;;18.50;75.30;;;;;;4980455;28;20036;-75
2022/08/21 01:57:26;;;;;;;7.88;4.25;;;18.50;75.40;;;;;;4992807;28;20083;-75
2022/08/21 01:59:51;;;;;;;10.98;4.93;;;18.50;75.60;;;;;;4988580;28;20022;-75
2022/08/21 02:02:17;;;;;;;9.57;5.07;;;18.50;75.80;;;;;;4973447;28;20039;-75
2022/08/21 02:04:43;;;;;;;11.25;5.03;;;18.50;75.90;;;;;;4983303;28;20037;-75
2022/08/21 02:07:08;;;;;;;11.18;5.43;;;18.40;75.90;;;;;;4974747;28;20027;-75
2022/08/21 02:09:34;;;;;;;11.20;5.45;;;18.40;75.90;;;;;;4959731;28;20046;-75
2022/08/21 02:12:00;;;;;;;11.57;4.93;;;18.40;75.90;;;;;;4988938;28;20058;-75
2022/08/21 02:14:26;;;;;;;9.43;5.25;;;18.30;75.90;;;;;;4987959;28;20035;-75
2022/08/21 02:16:51;;;;;;;9.93;4.47;;;18.30;76.10;;;;;;4987884;28;20056;-75
2022/08/21 02:19:17;;;;;;;9.07;5.00;;;18.30;76.10;;;;;;4980899;28;20038;-75
2022/08/21 02:21:43;;;;;;;11.65;5.32;;;18.30;76.20;;;;;;4982468;28;20383;-74
2022/08/21 02:24:10;;;;;;;10.50;5.88;;;18.30;76.30;;;;;;4987005;28;20053;-75
2022/08/21 02:26:36;;;;;;;9.75;4.60;;;18.30;76.20;;;;;;4991429;28;20110;-75
2022/08/21 02:29:03;;;;;;;10.73;5.70;;;18.30;76.30;;;;;;4990687;28;20630;-75
2022/08/21 02:31:28;;;;;;;9.43;5.85;;;18.20;76.40;;;;;;4963293;28;20456;-74
2022/08/21 02:33:54;;;;;;;9.18;5.93;;;18.30;76.50;;;;;;4992779;28;20084;-75
2022/08/21 02:36:20;;;;;;;9.85;5.72;;;18.20;76.60;;;;;;4987192;28;20117;-75
2022/08/21 02:38:46;;;;;;;9.88;5.78;;;18.20;76.70;;;;;;4991607;28;20033;-75
2022/08/21 02:41:15;;;;;;;10.68;5.70;;;18.20;76.80;;;;;;4979399;28;20074;-74
2022/08/21 02:43:41;;;;;;;12.00;6.88;;;18.20;76.80;;;;;;4991453;28;20026;-74
2022/08/21 02:46:10;;;;;;;13.38;6.45;;;18.20;76.90;;;;;;4980096;28;20065;-74
2022/08/21 02:48:36;;;;;;;11.73;6.18;;;18.20;77.10;;;;;;4995106;28;20041;-73
2022/08/21 02:51:07;;;;;;;9.88;5.82;;;18.10;77.10;;;;;;4988862;28;20081;-74
2022/08/21 02:53:35;;;;;;;11.68;6.53;;;18.20;77.20;;;;;;4977893;28;20034;-74
2022/08/21 02:56:04;;;;;;;11.48;6.75;;;18.10;77.30;;;;;;4976252;28;20712;-74
2022/08/21 02:58:33;;;;;;;10.25;6.57;;;18.10;77.40;;;;;;4978441;28;20017;-74
2022/08/21 03:00:59;;;;;;;10.13;6.43;;;18.10;77.40;;;;;;4977544;28;20493;-73
2022/08/21 03:03:26;;;;;;;13.65;7.20;;;18.20;77.40;;;;;;4978196;28;20058;-74
2022/08/21 03:05:53;;;;;;;11.80;6.30;;;18.10;77.40;;;;;;4984940;28;20092;-73
2022/08/21 03:08:19;;;;;;;11.52;7.32;;;18.10;77.60;;;;;;4986430;28;20050;-74
2022/08/21 03:10:47;;;;;;;10.95;6.32;;;18.10;77.70;;;;;;4976223;28;20097;-74
2022/08/21 03:13:14;;;;;;;11.38;6.60;;;18.10;77.70;;;;;;4978051;28;20023;-74
2022/08/21 03:15:40;;;;;;;11.57;7.30;;;18.10;77.80;;;;;;4973173;28;20058;-74
2022/08/21 03:18:07;;;;;;;12.07;6.68;;;18.10;77.80;;;;;;4979128;28;20022;-74
2022/08/21 03:20:35;;;;;;;11.07;6.97;;;18.10;77.90;;;;;;4990668;28;20699;-74
2022/08/21 03:23:03;;;;;;;9.10;6.95;;;18.00;77.90;;;;;;4980218;28;20053;-74
2022/08/21 03:25:31;;;;;;;13.48;7.10;;;18.00;77.80;;;;;;4990736;28;20049;-74
2022/08/21 03:27:58;;;;;;;12.80;7.75;;;18.00;77.80;;;;;;4984304;28;20041;-74
2022/08/21 03:30:24;;;;;;;11.40;6.97;;;18.00;77.90;;;;;;4971833;28;20026;-74
2022/08/21 03:32:52;;;;;;;10.10;6.80;;;18.00;77.90;;;;;;4975165;28;20037;-74
2022/08/21 03:35:19;;;;;;;12.70;8.05;;;18.00;78.00;;;;;;4987001;28;20022;-73
2022/08/21 03:37:46;;;;;;;14.73;7.90;;;18.00;78.10;;;;;;4985366;28;20794;-75
2022/08/21 03:40:15;;;;;;;11.32;7.70;;;18.00;78.20;;;;;;4997948;28;20069;-75
2022/08/21 03:42:41;;;;;;;10.25;6.85;;;18.00;78.30;;;;;;4993246;28;20141;-75
2022/08/21 03:45:08;;;;;;;13.20;7.80;;;17.90;78.40;;;;;;4990478;28;20082;-74
2022/08/21 03:47:34;;;;;;;15.45;8.05;;;17.90;78.50;;;;;;4982182;28;20043;-75
2022/08/21 03:50:00;;;;;;;10.70;7.95;;;17.90;78.60;;;;;;4985076;28;20033;-74
2022/08/21 03:52:26;;;;;;;12.32;7.82;;;17.90;78.60;;;;;;4984180;28;20401;-75
2022/08/21 03:54:52;;;;;;;12.15;7.10;;;17.90;78.70;;;;;;4972946;28;20066;-74
2022/08/21 03:57:18;;;;;;;13.60;7.90;;;17.90;78.80;;;;;;4973945;28;20023;-75
2022/08/21 03:59:44;;;;;;;13.18;7.88;;;17.80;78.80;;;;;;4980089;28;20022;-74
2022/08/21 04:02:11;;;;;;;12.35;8.43;;;17.80;78.90;;;;;;4988821;28;20037;-75
2022/08/21 04:04:37;;;;;;;12.85;8.57;;;17.80;79.10;;;;;;4979711;28;20050;-75
2022/08/21 04:07:03;;;;;;;11.68;8.85;;;17.80;79.20;;;;;;4990605;28;20026;-75
2022/08/21 04:09:29;;;;;;;14.18;9.10;;;17.80;79.30;;;;;;4978262;28;20018;-75
2022/08/21 04:11:56;;;;;;;12.35;8.38;;;17.70;79.30;;;;;;4990452;28;20030;-75
2022/08/21 04:14:22;;;;;;;11.45;8.02;;;17.70;79.40;;;;;;4988549;28;20466;-75
2022/08/21 04:16:48;;;;;;;12.25;8.35;;;17.70;79.50;;;;;;4970854;28;20597;-76
2022/08/21 04:19:14;;;;;;;14.52;8.13;;;17.70;79.40;;;;;;4973012;28;20110;-76
2022/08/21 04:21:41;;;;;;;11.90;8.52;;;17.70;79.30;;;;;;4989109;28;20041;-75
2022/08/21 04:24:09;;;;;;;14.23;8.48;;;17.70;79.30;;;;;;4986498;28;20471;-75
2022/08/21 04:26:35;;;;;;;13.40;8.35;;;17.70;79.20;;;;;;4973458;28;20082;-75
2022/08/21 04:29:02;;;;;;;10.80;8.52;;;17.70;79.20;;;;;;4979281;28;20504;-75
2022/08/21 04:31:28;;;;;;;13.63;8.27;;;17.70;79.20;;;;;;4959321;28;20484;-75
2022/08/21 04:33:56;;;;;;;13.88;8.63;;;17.70;79.30;;;;;;4975025;28;20018;-75
2022/08/21 04:36:22;;;;;;;17.08;8.82;;;17.70;79.30;;;;;;4956076;28;20106;-75
2022/08/21 04:38:48;;;;;;;15.20;9.18;;;17.70;79.40;;;;;;4972997;28;20142;-75
2022/08/21 04:41:15;;;;;;;14.73;8.75;;;17.60;79.40;;;;;;4982398;28;20133;-75
2022/08/21 04:43:40;;;;;;;15.63;9.45;;;17.60;79.50;;;;;;4978753;28;20046;-75
2022/08/21 04:46:06;;;;;;;15.05;8.10;;;17.60;79.50;;;;;;4972484;28;20039;-75
2022/08/21 04:48:32;;;;;;;14.85;8.50;;;17.60;79.70;;;;;;4972028;28;20614;-76
2022/08/21 04:51:17;;;;;;;15.85;8.18;;;17.60;79.80;;;;;;4981446;28;20042;-76
2022/08/21 04:54:00;;;;;;;18.38;9.85;;;17.60;80.00;;;;;;4971329;28;20026;-77
2022/08/21 04:56:54;;;;;;;13.55;9.23;;;17.60;80.10;;;;;;4982095;28;20030;-75
2022/08/21 04:59:30;;;;;;;14.02;8.65;;;17.60;80.10;;;;;;4973339;28;20071;-75
2022/08/21 05:01:57;;;;;;;13.00;8.80;;;17.60;80.00;;;;;;4993027;28;20069;-75
2022/08/21 05:04:27;;;;;;;13.63;8.30;;;17.70;80.00;;;;;;4992047;28;20022;-75
2022/08/21 05:06:57;;;;;;;12.73;9.05;;;17.60;79.90;;;;;;4974020;28;20023;-75
2022/08/21 05:09:24;;;;;;;13.20;8.33;;;17.70;79.90;;;;;;4975852;28;20051;-76
2022/08/21 05:11:51;;;;;;;13.45;9.40;;;17.70;79.90;;;;;;4984684;28;20019;-76
2022/08/21 05:14:17;;;;;;;14.77;9.32;;;17.80;80.00;;;;;;4972535;28;20061;-75
2022/08/21 05:16:43;;;;;;;15.80;9.43;;;17.80;80.20;;;;;;4980893;28;20102;-74
2022/08/21 05:19:10;;;;;;;13.80;9.82;;;17.80;80.40;;;;;;4993066;28;20029;-75
2022/08/21 05:21:38;;;;;;;13.57;8.95;;;17.80;80.40;;;;;;4982828;28;20397;-74
2022/08/21 05:24:03;;;;;;;11.85;8.40;;;17.90;80.50;;;;;;4992763;28;20132;-74
2022/08/21 05:26:29;;;;;;;14.40;9.10;;;17.90;80.50;;;;;;4992755;28;20552;-75
2022/08/21 05:28:55;;;;;;;13.43;9.10;;;18.00;80.60;;;;;;4974826;28;20023;-75
2022/08/21 05:31:22;;;;;;;12.23;8.20;;;18.00;80.50;;;;;;4978420;28;20098;-76
2022/08/21 05:33:47;;;;;;;12.95;9.55;;;18.10;80.50;;;;;;4989124;28;20022;-76
2022/08/21 05:36:13;;;;;;;13.32;9.07;;;18.10;80.50;;;;;;4992717;28;20037;-75
2022/08/21 05:38:39;;;;;;;12.68;9.98;;;18.10;80.40;;;;;;4961301;28;20031;-75
2022/08/21 05:41:05;;;;;;;11.77;8.68;;;18.20;80.40;;;;;;4972146;28;20026;-76
2022/08/21 05:43:32;;;;;;;13.40;9.30;;;18.30;80.30;;;;;;4982432;28;20073;-75
2022/08/21 05:45:58;;;;;;;14.20;9.75;;;18.30;80.20;;;;;;4977821;28;20392;-75
2022/08/21 05:48:24;;;;;;;15.25;10.88;;;18.40;80.00;;;;;;4964288;28;20026;-75
2022/08/21 05:50:51;;;;;;;13.80;9.52;;;18.50;79.80;;;;;;4989754;28;20035;-75
2022/08/21 05:53:19;;;;;;;16.23;10.70;;;18.60;79.60;;;;;;4972381;28;20057;-75
2022/08/21 05:55:45;;;;;;;12.98;10.00;;;18.50;79.30;;;;;;4991325;28;20042;-74
2022/08/21 05:58:19;;;;;;;14.95;12.02;;;18.50;79.40;;;;;;4990019;28;20022;-75
2022/08/21 06:00:47;;;;;;;14.38;9.60;;;18.50;79.30;;;;;;4979929;28;20025;-75
2022/08/21 06:03:33;;;;;;;13.90;8.98;;;18.40;79.40;;;;;;4991549;28;20031;-76
2022/08/21 06:06:00;;;;;;;13.50;9.82;;;18.40;79.60;;;;;;4988130;28;20061;-75
2022/08/21 06:08:26;;;;;;;13.35;10.05;;;18.40;79.80;;;;;;4978443;28;20141;-76
2022/08/21 06:10:53;;;;;;;15.27;10.90;;;18.40;79.60;;;;;;4982442;28;20034;-74
2022/08/21 06:13:20;;;;;;;17.92;10.88;;;18.50;79.40;;;;;;4983480;28;20037;-74
2022/08/21 06:15:46;;;;;;;13.60;9.23;;;18.50;79.50;;;;;;4981243;28;20386;-75
2022/08/21 06:18:12;;;;;;;15.30;9.52;;;18.60;79.50;;;;;;4980533;28;20026;-75
2022/08/21 06:20:38;;;;;;;13.52;9.18;;;18.70;79.10;;;;;;4982020;28;20454;-74
2022/08/21 06:23:04;;;;;;;13.98;9.85;;;18.70;78.50;;;;;;4981715;28;20034;-74
2022/08/21 06:25:30;;;;;;;14.57;9.48;;;18.70;78.60;;;;;;4980971;28;20030;-74
2022/08/21 06:28:08;;;;;;;16.30;9.75;;;18.70;78.80;;;;;;4984283;28;20085;-74
2022/08/21 06:30:35;;;;;;;11.93;7.68;;;18.80;78.70;;;;;;4977024;28;20033;-77
2022/08/21 06:33:03;;;;;;;8.43;4.90;;;18.80;78.00;;;;;;4959551;28;20374;-75
2022/08/21 06:35:29;;;;;;;12.27;7.88;;;18.80;74.70;;;;;;4978137;28;20129;-69
2022/08/21 06:37:57;;;;;;;7.72;4.22;;;18.90;75.10;;;;;;4978010;28;20640;-68
2022/08/21 06:40:22;;;;;;;10.70;6.25;;;19.00;75.80;;;;;;4981281;28;20022;-67
2022/08/21 06:42:48;;;;;;;10.18;5.07;;;19.50;75.60;;;;;;4973335;28;20374;-68
2022/08/21 06:45:14;;;;;;;14.40;8.30;;;19.90;73.00;;;;;;4987076;28;20481;-68
2022/08/21 06:47:40;;;;;;;11.35;6.65;;;20.20;70.70;;;;;;4985502;28;20050;-67
2022/08/21 06:50:07;;;;;;;14.50;6.05;;;20.30;71.10;;;;;;4979599;28;20107;-67
2022/08/21 06:52:37;;;;;;;9.07;4.47;;;20.30;71.50;;;;;;4991001;28;20053;-67
2022/08/21 06:55:05;;;;;;;8.45;4.28;;;20.40;71.90;;;;;;4988114;28;20038;-67
2022/08/21 06:57:31;;;;;;;9.43;4.85;;;20.40;71.80;;;;;;4975701;28;20078;-68
2022/08/21 06:59:57;;;;;;;13.30;7.03;;;20.50;71.80;;;;;;4992638;28;20022;-69
2022/08/21 07:02:22;;;;;;;11.73;5.30;;;20.60;72.30;;;;;;4993020;28;20105;-68
2022/08/21 07:04:48;;;;;;;10.75;6.43;;;20.60;72.10;;;;;;4987916;28;20444;-68
2022/08/21 07:07:13;;;;;;;15.52;6.00;;;20.50;70.30;;;;;;4986130;28;20033;-68
2022/08/21 07:09:39;;;;;;;15.48;7.18;;;20.50;69.00;;;;;;4985183;28;20031;-68
2022/08/21 07:12:06;;;;;;;15.35;7.07;;;20.50;70.80;;;;;;4987183;28;20034;-68
2022/08/21 07:14:31;;;;;;;9.43;4.80;;;20.60;70.70;;;;;;4988700;28;20018;-68
2022/08/21 07:16:58;;;;;;;14.50;6.32;;;20.60;68.60;;;;;;4981195;28;20027;-67
2022/08/21 07:19:24;;;;;;;13.27;4.80;;;20.70;68.60;;;;;;4975655;28;20034;-68
2022/08/21 07:21:49;;;;;;;18.80;7.90;;;20.80;68.10;;;;;;4981497;28;20389;-66
2022/08/21 07:24:15;;;;;;;11.27;3.35;;;21.00;68.90;;;;;;4985627;28;20043;-67
2022/08/21 07:26:41;;;;;;;9.93;4.35;;;21.10;67.00;;;;;;4986602;28;20026;-67
2022/08/21 07:29:07;;;;;;;11.57;5.28;;;21.30;65.70;;;;;;4970951;28;20552;-66
2022/08/21 07:31:33;;;;;;;9.48;2.83;;;21.50;67.10;;;;;;4989942;28;20030;-66
2022/08/21 07:33:58;;;;;;;13.15;5.25;;;21.80;63.70;;;;;;4990072;28;20031;-66
2022/08/21 07:36:24;;;;;;;9.05;3.35;;;22.10;65.90;;;;;;4979476;28;20029;-67
2022/08/21 07:38:50;;;;;;;11.27;3.28;;;22.20;63.30;;;;;;4962012;28;20029;-66
2022/08/21 07:41:20;;;;;;;7.63;2.78;;;22.40;61.80;;;;;;4973885;28;20035;-66
2022/08/21 07:43:47;;;;;;;11.90;2.75;;;22.60;61.20;;;;;;4988445;28;20037;-66
2022/08/21 07:46:13;;;;;;;19.10;6.57;;;22.90;60.40;;;;;;4976245;28;20051;-67
2022/08/21 07:48:39;;;;;;;12.45;6.38;;;23.00;65.00;;;;;;4986832;28;20120;-67
2022/08/21 07:51:10;;;;;;;21.80;8.05;;;22.80;66.20;;;;;;4981014;28;20077;-67
2022/08/21 07:53:37;;;;;;;13.45;7.03;;;22.50;67.70;;;;;;4971774;28;20031;-66
2022/08/21 07:56:05;;;;;;;18.70;7.63;;;22.30;69.00;;;;;;4972607;28;20034;-66
2022/08/21 07:58:31;;;;;;;7.43;3.25;;;22.20;69.40;;;;;;4984015;28;20389;-66
2022/08/21 08:00:58;;;;;;;10.10;4.28;;;22.20;65.70;;;;;;4982719;28;20077;-66
2022/08/21 08:03:24;;;;;;;16.85;5.05;;;22.30;65.50;;;;;;4983592;28;20038;-66
2022/08/21 08:05:50;;;;;;;7.88;2.58;;;22.40;64.70;;;;;;4968216;28;20027;-66
2022/08/21 08:08:16;;;;;;;16.25;6.50;;;22.50;63.70;;;;;;4990769;28;20034;-66
2022/08/21 08:10:43;;;;;;;12.00;3.53;;;22.50;65.60;;;;;;4988117;28;20653;-66
2022/08/21 08:13:09;;;;;;;6.80;2.80;;;22.50;64.90;;;;;;4982277;28;20073;-66
2022/08/21 08:15:36;;;;;;;17.65;6.57;;;22.50;65.00;;;;;;4989717;28;20050;-66
2022/08/21 08:18:03;;;;;;;12.57;7.03;;;22.60;66.00;;;;;;4979260;28;20033;-67
2022/08/21 08:20:29;;;;;;;7.38;3.15;;;22.70;68.30;;;;;;4990013;28;20488;-67
2022/08/21 08:22:55;;;;;;;14.35;4.90;;;22.60;66.50;;;;;;4982659;28;20401;-66
2022/08/21 08:25:22;;;;;;;14.15;5.72;;;22.70;66.10;;;;;;4971021;28;20030;-67
2022/08/21 08:27:48;;;;;;;11.40;4.07;;;22.80;67.70;;;;;;4983371;28;20437;-67
2022/08/21 08:30:16;;;;;;;12.95;4.65;;;22.80;66.80;;;;;;4991163;28;20037;-67
2022/08/21 08:32:42;;;;;;;7.80;2.65;;;23.00;65.60;;;;;;4969565;28;20037;-67
2022/08/21 08:35:09;;;;;;;9.20;3.42;;;23.10;65.10;;;;;;4958439;28;20019;-66
2022/08/21 08:37:37;;;;;;;9.30;3.45;;;23.40;63.70;;;;;;4980204;28;20030;-66
2022/08/21 08:40:04;;;;;;;13.48;5.55;;;23.50;63.60;;;;;;4990697;28;20061;-66
2022/08/21 08:42:33;;;;;;;17.63;6.78;;;23.60;64.80;;;;;;4972059;28;20512;-66
2022/08/21 08:45:06;;;;;;;13.20;4.05;;;23.70;65.80;;;;;;4980024;28;20066;-66
2022/08/21 08:47:42;;;;;;;11.50;3.83;;;23.70;66.00;;;;;;4979916;28;20046;-67
2022/08/21 08:50:21;;;;;;;13.70;4.03;;;23.70;64.70;;;;;;4977051;28;20109;-66
2022/08/21 08:53:00;;;;;;;11.63;5.05;;;23.70;63.70;;;;;;4979012;28;20622;-67
2022/08/21 08:55:38;;;;;;;9.00;2.88;;;23.80;64.00;;;;;;4979237;28;20023;-66
2022/08/21 08:58:04;;;;;;;13.95;4.55;;;23.90;63.20;;;;;;4978094;28;20027;-67
2022/08/21 09:00:31;;;;;;;10.23;4.00;;;24.10;64.60;;;;;;4971232;28;20034;-66
2022/08/21 09:03:00;;;;;;;13.20;5.05;;;24.30;63.30;;;;;;4989020;28;20039;-66
2022/08/21 09:05:54;;;;;;;9.48;3.25;;;24.30;62.80;;;;;;4986022;28;20034;-66
2022/08/21 09:08:43;;;;;;;15.18;5.00;;;24.00;63.20;;;;;;4991962;28;20026;-67
2022/08/21 09:11:11;;;;;;;19.33;6.22;;;24.00;63.60;;;;;;4993722;28;20045;-66
2022/08/21 09:13:51;;;;;;;12.75;4.50;;;24.10;63.50;;;;;;4987051;28;20033;-67
2022/08/21 09:16:38;;;;;;;12.55;4.13;;;24.20;63.40;;;;;;4972388;28;20034;-67
2022/08/21 09:19:27;;;;;;;10.88;2.80;;;24.30;63.10;;;;;;4991737;28;20049;-67
2022/08/21 09:22:19;;;;;;;10.25;3.33;;;24.30;62.30;;;;;;4994502;28;20022;-67
2022/08/21 09:25:07;;;;;;;12.77;3.63;;;24.40;62.40;;;;;;4982256;28;20102;-66
2022/08/21 09:27:34;;;;;;;7.82;2.55;;;24.50;62.20;;;;;;4994293;28;20453;-66
2022/08/21 09:30:00;;;;;;;9.73;2.70;;;24.50;61.60;;;;;;4980495;28;20059;-67
2022/08/21 09:32:28;;;;;;;7.57;2.38;;;24.40;61.60;;;;;;4989200;28;20701;-67
2022/08/21 09:35:19;;;;;;;10.32;2.10;;;24.40;61.80;;;;;;4986272;28;20106;-67
2022/08/21 09:38:23;;;;;;;8.82;2.47;;;24.60;61.80;;;;;;4992780;28;20604;-67
2022/08/21 09:40:58;;;;;;;6.25;2.10;;;24.70;60.70;;;;;;4974241;28;20018;-66
2022/08/21 09:43:27;;;;;;;9.35;1.95;;;24.80;60.60;;;;;;4973929;28;20038;-67
2022/08/21 09:46:11;;;;;;;9.77;2.20;;;24.90;60.00;;;;;;4984879;28;20022;-69
2022/08/21 09:48:52;;;;;;;10.32;2.70;;;24.90;60.00;;;;;;4974959;28;20027;-66
2022/08/21 09:51:22;;;;;;;6.90;1.77;;;24.90;59.80;;;;;;4987582;28;20075;-66
2022/08/21 09:53:53;;;;;;;13.50;2.90;;;25.00;61.40;;;;;;4975634;28;20031;-66
2022/08/21 09:59:31;;;;;;;9.55;2.40;;;25.30;57.70;;;;;;4992708;28;20401;-66
2022/08/21 10:02:01;;;;;;;12.40;2.97;;;25.20;58.20;;;;;;4983357;28;20109;-66
2022/08/21 10:04:35;;;;;;;6.57;2.40;;;25.00;57.80;;;;;;4991151;28;20116;-66
2022/08/21 10:07:13;;;;;;;8.57;2.53;;;24.90;59.00;;;;;;4984591;28;20023;-67
2022/08/21 10:09:39;;;;;;;9.05;1.92;;;24.80;58.90;;;;;;4974385;28;20029;-67
2022/08/21 10:12:31;;;;;;;6.80;1.80;;;25.00;60.00;;;;;;4983621;28;20027;-68
2022/08/21 10:15:48;;;;;;;9.00;1.67;;;25.20;58.60;;;;;;4974639;28;20050;-67
2022/08/21 10:18:36;;;;;;;6.82;1.95;;;25.50;58.60;;;;;;4971552;28;20038;-67
2022/08/21 10:21:17;;;;;;;9.88;1.80;;;25.70;59.60;;;;;;4966736;28;20030;-67
2022/08/21 10:23:48;;;;;;;8.43;2.45;;;25.90;58.80;;;;;;4973162;28;20046;-66
2022/08/21 10:26:45;;;;;;;10.02;2.03;;;25.90;55.50;;;;;;4977597;28;20640;-67
2022/08/21 10:29:27;;;;;;;4.80;1.60;;;25.90;55.60;;;;;;4992320;28;20584;-67
2022/08/21 10:32:11;;;;;;;6.80;1.88;;;25.90;56.50;;;;;;4981281;28;20616;-67
2022/08/21 10:34:57;;;;;;;7.68;1.80;;;25.80;56.40;;;;;;4992423;28;20037;-66
2022/08/21 10:37:55;;;;;;;8.10;2.03;;;25.80;58.30;;;;;;4973975;28;20068;-67
2022/08/21 10:40:42;;;;;;;4.93;1.40;;;26.00;56.30;;;;;;4990750;28;20034;-66
2022/08/21 10:43:27;;;;;;;5.63;1.50;;;26.20;58.00;;;;;;4990695;28;20053;-67
2022/08/21 10:46:24;;;;;;;7.97;1.90;;;26.30;57.30;;;;;;4972329;28;20053;-68
2022/08/21 10:48:57;;;;;;;7.68;1.95;;;26.50;57.30;;;;;;4966844;28;20035;-66
2022/08/21 10:51:22;;;;;;;9.48;1.80;;;26.60;56.10;;;;;;4988069;28;20142;-67
2022/08/21 10:54:12;;;;;;;6.70;1.65;;;26.80;52.70;;;;;;4990122;28;20073;-67
2022/08/21 10:56:40;;;;;;;7.03;1.63;;;26.80;55.20;;;;;;4988683;28;20061;-66
2022/08/21 10:59:33;;;;;;;6.85;1.70;;;26.90;55.80;;;;;;4981016;28;20042;-66
2022/08/21 11:02:13;;;;;;;9.70;1.98;;;27.10;53.50;;;;;;4977894;28;20045;-66
2022/08/21 11:05:23;;;;;;;5.80;1.70;;;27.20;49.80;;;;;;4977686;28;20387;-67
2022/08/21 11:08:01;;;;;;;6.05;1.30;;;27.20;52.50;;;;;;4971588;28;20039;-65
2022/08/21 11:10:38;;;;;;;7.40;1.98;;;27.40;55.30;;;;;;4970134;28;20039;-67
2022/08/21 11:13:32;;;;;;;11.85;2.38;;;27.30;51.70;;;;;;4980753;28;20030;-66
2022/08/21 11:16:11;;;;;;;7.93;1.95;;;27.20;54.80;;;;;;4973022;28;20045;-67
2022/08/21 11:18:41;;;;;;;8.93;1.80;;;27.10;55.20;;;;;;4975211;28;20090;-67
2022/08/21 11:21:24;;;;;;;6.68;1.63;;;27.20;52.70;;;;;;4989675;28;20022;-68
2022/08/21 11:23:57;;;;;;;8.05;1.90;;;27.30;52.50;;;;;;4978348;28;20034;-67
2022/08/21 11:26:37;;;;;;;6.50;1.42;;;27.30;55.80;;;;;;4990942;28;20026;-67
2022/08/21 11:29:36;;;;;;;6.50;1.42;;;27.40;51.70;;;;;;4978551;28;20177;-67
2022/08/21 11:32:10;;;;;;;5.63;1.73;;;27.50;49.90;;;;;;4983677;28;20034;-68
2022/08/21 11:34:51;;;;;;;6.38;1.40;;;27.70;51.80;;;;;;4987886;28;20404;-67
2022/08/21 11:37:16;;;;;;;4.30;1.20;;;27.80;51.50;;;;;;4985796;28;20038;-67
2022/08/21 11:40:27;;;;;;;7.40;1.83;;;28.00;55.00;;;;;;4980638;28;20721;-67
2022/08/21 11:43:25;;;;;;;6.80;1.88;;;28.20;54.50;;;;;;4941395;28;20490;-67
2022/08/21 11:45:59;;;;;;;8.02;2.05;;;28.20;53.10;;;;;;4978225;28;20030;-68
2022/08/21 11:48:54;;;;;;;6.70;1.83;;;28.20;51.70;;;;;;4984597;28;20519;-67
2022/08/21 11:51:27;;;;;;;6.57;1.77;;;28.30;53.20;;;;;;4974185;28;20489;-65
2022/08/21 11:54:03;;;;;;;3.97;1.17;;;28.50;54.00;;;;;;4963651;28;20033;-67
2022/08/21 11:56:34;;;;;;;7.10;1.95;;;28.60;53.60;;;;;;4982816;28;20038;-66
2022/08/21 11:59:06;;;;;;;6.35;1.90;;;28.60;52.80;;;;;;4981858;28;20033;-67
2022/08/21 12:01:39;;;;;;;7.10;1.52;;;28.50;51.40;;;;;;4980236;28;20029;-67
2022/08/21 12:04:09;;;;;;;5.30;1.48;;;28.60;53.50;;;;;;4963548;28;20027;-66
2022/08/21 12:06:37;;;;;;;;;;;28.70;55.40;;;;;;4981400;28;20050;-67
2022/08/21 12:09:24;;;;;;;7.78;1.60;;;28.70;51.50;;;;;;4981316;28;19962;-67
2022/08/21 12:11:59;;;;;;;6.30;1.45;;;28.70;50.50;;;;;;4970330;28;20023;-66
2022/08/21 12:14:46;;;;;;;4.57;1.40;;;28.80;53.70;;;;;;4984110;28;20484;-66
2022/08/21 12:17:26;;;;;;;5.53;1.50;;;28.80;54.90;;;;;;4989926;28;20018;-66
2022/08/21 12:19:59;;;;;;;8.18;2.25;;;29.00;54.70;;;;;;4984824;28;20047;-66
2022/08/21 12:22:37;;;;;;;4.75;1.50;;;29.20;47.20;;;;;;4983189;28;20065;-65
2022/08/21 12:25:08;;;;;;;5.07;1.38;;;29.30;54.10;;;;;;4984511;28;20396;-66
2022/08/21 12:27:52;;;;;;;7.82;1.92;;;29.30;54.20;;;;;;4981558;28;20431;-66
2022/08/21 12:30:36;;;;;;;4.47;1.30;;;29.10;46.20;;;;;;4964676;28;20074;-66
2022/08/21 12:33:19;;;;;;;7.03;1.80;;;28.80;49.40;;;;;;4980097;28;20022;-66
2022/08/21 12:35:49;;;;;;;4.57;1.13;;;28.80;50.90;;;;;;4983131;28;20089;-66
2022/08/21 12:38:28;;;;;;;5.97;1.40;;;29.00;55.20;;;;;;4983470;28;20065;-65
2022/08/21 12:40:59;;;;;;;7.10;1.83;;;29.30;53.90;;;;;;4981474;28;20069;-67
2022/08/21 12:43:30;;;;;;;7.20;1.38;;;29.50;47.20;;;;;;4982234;28;20038;-67
2022/08/21 12:45:58;;;;;;;5.30;1.40;;;29.50;50.60;;;;;;4982870;28;20038;-67
2022/08/21 12:48:30;;;;;;;4.68;1.20;;;29.30;48.80;;;;;;4984358;28;20088;-67
2022/08/21 12:51:10;;;;;;;5.68;1.45;;;29.10;52.10;;;;;;4983559;28;20035;-67
2022/08/21 12:53:42;;;;;;;;;;;28.70;50.80;;;;;;4982300;28;20084;-67
2022/08/21 12:56:12;;;;;;;4.45;1.27;;;28.60;51.90;;;;;;4981474;28;19910;-67
2022/08/21 12:58:41;;;;;;;7.07;1.42;;;28.60;50.70;;;;;;4982335;28;20065;-67
2022/08/21 13:01:27;;;;;;;8.10;1.67;;;28.60;46.30;;;;;;4979593;28;20027;-67
2022/08/21 13:04:03;;;;;;;7.05;1.63;;;28.70;54.30;;;;;;4979815;28;20074;-67
2022/08/21 13:06:36;;;;;;;5.45;1.20;;;28.80;47.90;;;;;;4981183;28;20434;-67